createdAt,value
2019-01-21T00:00:51.527Z,25.93
2019-01-21T00:03:20.755Z,26.70
2019-01-21T00:05:49.822Z,25.47
2019-01-21T00:08:18.857Z,27.60
2019-01-21T00:10:47.902Z,26.70
2019-01-21T00:13:16.962Z,28.70
2019-01-21T00:15:46.069Z,28.53
2019-01-21T00:18:15.180Z,26.87
2019-01-21T00:20:44.245Z,27.97
2019-01-21T00:23:13.242Z,24.67
2019-01-21T00:25:42.287Z,26.60
2019-01-21T00:28:11.339Z,27.00
2019-01-21T00:30:40.417Z,29.80
2019-01-21T00:33:09.470Z,26.93
2019-01-21T00:35:38.588Z,27.70
2019-01-21T00:38:07.662Z,28.57
2019-01-21T00:40:36.735Z,29.37
2019-01-21T00:43:05.793Z,28.10
2019-01-21T00:45:34.895Z,30.20
2019-01-21T00:48:03.884Z,31.20
2019-01-21T00:50:32.966Z,30.60
2019-01-21T00:53:02.070Z,32.67
2019-01-21T00:55:31.059Z,28.40
2019-01-21T00:58:00.114Z,28.60
2019-01-21T01:00:29.106Z,28.30
2019-01-21T01:02:58.155Z,26.97
2019-01-21T01:05:27.130Z,32.17
2019-01-21T01:07:56.210Z,30.47
2019-01-21T01:10:25.204Z,31.23
2019-01-21T01:12:54.276Z,29.57
2019-01-21T01:15:23.364Z,31.20
2019-01-21T01:17:52.429Z,27.83
2019-01-21T01:20:22.164Z,27.10
2019-01-21T01:22:51.242Z,26.30
2019-01-21T01:25:20.231Z,28.73
2019-01-21T01:27:49.285Z,29.23
2019-01-21T01:30:18.402Z,27.43
2019-01-21T01:32:47.411Z,28.50
2019-01-21T01:35:16.997Z,30.03
2019-01-21T01:37:46.193Z,26.87
2019-01-21T01:40:19.424Z,28.07
2019-01-21T01:42:48.833Z,28.53
2019-01-21T01:45:27.811Z,29.00
2019-01-21T01:48:01.087Z,27.73
2019-01-21T01:50:30.195Z,31.30
2019-01-21T01:52:59.355Z,30.27
2019-01-21T01:55:29.205Z,26.43
2019-01-21T01:57:59.949Z,28.13
2019-01-21T02:00:29.015Z,30.53
2019-01-21T02:02:58.080Z,27.07
2019-01-21T02:05:27.088Z,29.63
2019-01-21T02:07:56.185Z,29.17
2019-01-21T02:10:25.246Z,31.13
2019-01-21T02:12:54.353Z,30.47
2019-01-21T02:15:23.491Z,27.37
2019-01-21T02:17:52.542Z,29.80
2019-01-21T02:20:21.677Z,27.10
2019-01-21T02:22:53.230Z,28.70
2019-01-21T02:25:23.942Z,29.13
2019-01-21T02:28:29.801Z,29.50
2019-01-21T02:31:32.010Z,26.90
2019-01-21T02:34:26.478Z,27.10
2019-01-21T02:37:48.051Z,27.30
2019-01-21T02:40:48.583Z,27.00
2019-01-21T02:43:48.262Z,28.13
2019-01-21T02:46:24.742Z,29.20
2019-01-21T02:49:01.310Z,26.57
2019-01-21T02:51:43.173Z,30.37
2019-01-21T02:54:21.677Z,28.47
2019-01-21T02:57:29.146Z,28.13
2019-01-21T03:00:45.314Z,27.63
2019-01-21T03:03:50.366Z,27.73
2019-01-21T03:06:58.425Z,27.50
2019-01-21T03:10:02.946Z,29.53
2019-01-21T03:13:16.031Z,31.30
2019-01-21T03:16:32.626Z,28.23
2019-01-21T03:19:26.867Z,26.67
2019-01-21T03:22:39.019Z,27.57
2019-01-21T03:25:37.243Z,30.30
2019-01-21T03:28:34.175Z,30.93
2019-01-21T03:31:56.171Z,26.87
2019-01-21T03:35:03.638Z,27.60
2019-01-21T03:38:15.738Z,26.37
2019-01-21T03:41:02.056Z,31.27
2019-01-21T03:44:09.267Z,28.33
2019-01-21T03:46:59.360Z,30.83
2019-01-21T03:49:56.993Z,29.27
2019-01-21T03:53:19.738Z,27.27
2019-01-21T03:55:51.146Z,30.03
2019-01-21T03:58:45.851Z,30.73
2019-01-21T04:01:46.998Z,26.57
2019-01-21T04:05:08.935Z,28.83
2019-01-21T04:08:18.548Z,26.47
2019-01-21T04:11:27.921Z,28.63
2019-01-21T04:14:25.841Z,27.03
2019-01-21T04:17:34.816Z,25.83
2019-01-21T04:20:31.790Z,31.37
2019-01-21T04:23:54.030Z,27.57
2019-01-21T04:27:00.130Z,26.57
2019-01-21T04:30:19.109Z,25.93
2019-01-21T04:33:34.800Z,27.27
2019-01-21T04:36:31.596Z,26.60
2019-01-21T04:39:20.741Z,26.57
2019-01-21T04:42:06.556Z,29.30
2019-01-21T04:45:05.588Z,27.30
2019-01-21T04:48:15.734Z,30.70
2019-01-21T04:51:29.709Z,26.13
2019-01-21T04:54:10.891Z,25.97
2019-01-21T04:57:21.884Z,28.37
2019-01-21T05:00:14.317Z,28.30
2019-01-21T05:03:20.288Z,29.10
2019-01-21T05:06:32.077Z,29.40
2019-01-21T05:09:22.560Z,27.33
2019-01-21T05:12:12.434Z,28.80
2019-01-21T05:15:22.747Z,27.63
2019-01-21T05:18:27.116Z,28.37
2019-01-21T05:21:45.295Z,27.53
2019-01-21T05:25:01.487Z,27.23
2019-01-21T05:28:02.879Z,26.50
2019-01-21T05:31:13.200Z,27.20
2019-01-21T05:34:05.271Z,27.83
2019-01-21T05:36:51.460Z,29.50
2019-01-21T05:40:02.432Z,29.63
2019-01-21T05:43:08.540Z,30.97
2019-01-21T05:46:20.273Z,31.67
2019-01-21T05:49:51.340Z,31.17
2019-01-21T05:53:16.522Z,27.43
2019-01-21T05:56:44.870Z,27.87
2019-01-21T05:59:47.199Z,34.40
2019-01-21T06:03:03.589Z,28.57
2019-01-21T06:06:02.901Z,32.27
2019-01-21T06:09:01.341Z,28.70
2019-01-21T06:12:02.365Z,33.27
2019-01-21T06:15:14.144Z,31.57
2019-01-21T06:18:24.398Z,30.87
2019-01-21T06:21:28.866Z,31.83
2019-01-21T06:24:25.442Z,31.67
2019-01-21T06:27:36.648Z,33.03
2019-01-21T06:30:47.405Z,29.73
2019-01-21T06:33:59.167Z,32.87
2019-01-21T06:36:50.078Z,28.70
2019-01-21T06:40:02.166Z,27.87
2019-01-21T06:43:08.858Z,31.77
2019-01-21T06:46:06.242Z,31.57
2019-01-21T06:49:25.109Z,31.57
2019-01-21T06:52:18.255Z,30.40
2019-01-21T06:55:40.339Z,33.93
2019-01-21T06:58:31.718Z,30.90
2019-01-21T07:01:30.023Z,34.13
2019-01-21T07:04:27.522Z,29.60
2019-01-21T07:07:36.223Z,29.17
2019-01-21T07:10:52.130Z,30.90
2019-01-21T07:13:52.402Z,31.40
2019-01-21T07:16:43.169Z,32.70
2019-01-21T07:20:05.249Z,33.40
2019-01-21T07:23:18.352Z,30.97
2019-01-21T07:26:18.474Z,31.57
2019-01-21T07:29:35.183Z,33.83
2019-01-21T07:32:42.831Z,32.30
2019-01-21T07:35:50.737Z,32.80
2019-01-21T07:38:45.579Z,34.70
2019-01-21T07:41:44.576Z,37.47
2019-01-21T07:45:00.706Z,35.00
2019-01-21T07:48:06.106Z,37.07
2019-01-21T07:51:21.490Z,35.30
2019-01-21T07:54:10.756Z,34.40
2019-01-21T07:57:16.735Z,34.57
2019-01-21T08:00:43.014Z,33.30
2019-01-21T08:03:39.065Z,34.27
2019-01-21T08:06:45.400Z,33.97
2019-01-21T08:09:36.504Z,33.70
2019-01-21T08:12:29.514Z,33.07
2019-01-21T08:15:35.095Z,33.13
2019-01-21T08:18:53.850Z,37.43
2019-01-21T08:21:54.513Z,36.33
2019-01-21T08:25:19.343Z,36.10
2019-01-21T08:28:07.822Z,35.47
2019-01-21T08:31:16.258Z,36.23
2019-01-21T08:34:28.383Z,35.23
2019-01-21T08:37:20.607Z,37.37
2019-01-21T08:40:17.320Z,39.10
2019-01-21T08:43:18.368Z,44.17
2019-01-21T08:46:47.552Z,41.93
2019-01-21T08:50:00.886Z,37.83
2019-01-21T08:52:53.441Z,41.37
2019-01-21T08:56:14.366Z,39.23
2019-01-21T08:59:22.994Z,42.07
2019-01-21T09:02:19.298Z,42.37
2019-01-21T09:05:27.642Z,48.53
2019-01-21T09:08:42.110Z,53.13
2019-01-21T09:11:50.278Z,53.97
2019-01-21T09:14:30.376Z,54.77
2019-01-21T09:17:34.449Z,57.43
2019-01-21T09:20:47.946Z,56.40
2019-01-21T09:23:42.080Z,54.87
2019-01-21T09:27:03.106Z,54.80
2019-01-21T09:30:07.845Z,55.37
2019-01-21T09:32:46.731Z,52.57
2019-01-21T09:35:43.616Z,49.13
2019-01-21T09:38:51.355Z,52.87
2019-01-21T09:41:57.303Z,49.90
2019-01-21T09:44:32.065Z,49.93
2019-01-21T09:46:59.698Z,49.00
2019-01-21T09:49:27.565Z,47.23
2019-01-21T09:52:01.713Z,49.87
2019-01-21T09:54:30.313Z,46.47
2019-01-21T09:56:58.878Z,47.63
2019-01-21T09:59:27.450Z,45.87
2019-01-21T10:01:57.036Z,47.87
2019-01-21T10:04:44.789Z,55.43
2019-01-21T10:07:23.237Z,50.60
2019-01-21T10:09:56.102Z,51.77
2019-01-21T10:12:38.559Z,47.80
2019-01-21T10:15:12.379Z,49.83
2019-01-21T10:17:55.141Z,48.97
2019-01-21T10:20:41.443Z,45.70
2019-01-21T10:23:22.923Z,53.50
2019-01-21T10:26:06.579Z,55.33
2019-01-21T10:28:52.757Z,54.80
2019-01-21T10:31:49.542Z,55.87
2019-01-21T10:34:25.565Z,53.03
2019-01-21T10:37:11.949Z,54.07
2019-01-21T10:40:11.770Z,51.13
2019-01-21T10:43:05.110Z,51.80
2019-01-21T10:45:49.616Z,51.33
2019-01-21T10:48:31.783Z,54.60
2019-01-21T10:51:22.363Z,49.93
2019-01-21T10:54:08.343Z,47.50
2019-01-21T10:56:39.964Z,47.97
2019-01-21T10:59:30.694Z,47.13
2019-01-21T11:02:16.762Z,44.93
2019-01-21T11:05:19.278Z,41.63
2019-01-21T11:08:05.227Z,45.63
2019-01-21T11:10:53.013Z,44.20
2019-01-21T11:13:35.476Z,44.67
2019-01-21T11:16:08.848Z,44.23
2019-01-21T11:18:46.827Z,46.77
2019-01-21T11:21:18.541Z,47.80
2019-01-21T11:23:54.042Z,45.30
2019-01-21T11:26:47.658Z,40.80
2019-01-21T11:29:28.908Z,42.17
2019-01-21T11:32:09.278Z,38.27
2019-01-21T11:34:51.503Z,36.73
2019-01-21T11:37:39.705Z,38.60
2019-01-21T11:40:30.487Z,38.47
2019-01-21T11:43:08.930Z,39.30
2019-01-21T11:46:02.450Z,44.10
2019-01-21T11:48:52.791Z,39.37
2019-01-21T11:51:46.389Z,37.10
2019-01-21T11:54:31.154Z,34.03
2019-01-21T11:57:09.348Z,37.47
2019-01-21T11:59:43.711Z,37.93
2019-01-21T12:02:43.138Z,36.10
2019-01-21T12:05:31.851Z,38.77
2019-01-21T12:08:28.142Z,38.27
2019-01-21T12:11:14.081Z,37.77
2019-01-21T12:13:57.293Z,35.97
2019-01-21T12:16:51.389Z,35.67
2019-01-21T12:19:26.879Z,35.57
2019-01-21T12:22:12.817Z,33.93
2019-01-21T12:24:46.659Z,33.97
2019-01-21T12:27:20.236Z,32.77
2019-01-21T12:30:13.864Z,34.60
2019-01-21T12:32:54.164Z,34.40
2019-01-21T12:35:32.461Z,35.10
2019-01-21T12:38:18.850Z,33.77
2019-01-21T12:41:09.407Z,35.73
2019-01-21T12:43:46.314Z,36.47
2019-01-21T12:46:24.993Z,34.10
2019-01-21T12:49:11.205Z,35.63
2019-01-21T12:51:51.728Z,35.27
2019-01-21T12:54:24.271Z,37.00
2019-01-21T12:57:20.910Z,36.37
2019-01-21T12:59:56.353Z,38.13
2019-01-21T13:02:42.062Z,35.80
2019-01-21T13:05:16.886Z,35.70
2019-01-21T13:08:04.640Z,37.17
2019-01-21T13:10:52.403Z,36.00
2019-01-21T13:13:40.202Z,36.37
2019-01-21T13:16:23.943Z,35.00
2019-01-21T13:19:11.690Z,36.77
2019-01-21T13:21:59.460Z,34.73
2019-01-21T13:24:36.198Z,37.00
2019-01-21T13:27:10.688Z,35.73
2019-01-21T13:29:44.914Z,35.53
2019-01-21T13:32:50.634Z,34.50
2019-01-21T13:35:34.588Z,36.13
2019-01-21T13:38:31.198Z,35.17
2019-01-21T13:41:24.750Z,35.33
2019-01-21T13:44:11.037Z,36.40
2019-01-21T13:46:58.791Z,34.90
2019-01-21T13:49:30.432Z,34.90
2019-01-21T13:52:20.048Z,35.03
2019-01-21T13:55:13.390Z,36.20
2019-01-21T13:58:06.678Z,35.47
2019-01-21T14:00:43.653Z,33.23
2019-01-21T14:03:17.941Z,33.50
2019-01-21T14:06:04.238Z,27.07
2019-01-21T14:08:39.599Z,24.20
2019-01-21T14:11:30.183Z,23.80
2019-01-21T14:14:09.279Z,24.63
2019-01-21T14:16:55.927Z,27.57
2019-01-21T14:19:33.187Z,23.17
2019-01-21T14:22:12.826Z,21.80
2019-01-21T14:25:03.210Z,22.00
2019-01-21T14:27:53.747Z,19.13
2019-01-21T14:30:36.118Z,18.67
2019-01-21T14:33:10.406Z,18.10
2019-01-21T14:35:58.346Z,13.60
2019-01-21T14:39:01.186Z,13.43
2019-01-21T14:41:51.959Z,12.70
2019-01-21T14:44:39.755Z,15.23
2019-01-21T14:47:39.288Z,14.13
2019-01-21T14:50:32.750Z,13.23
2019-01-21T14:53:29.551Z,14.13
2019-01-21T14:56:14.942Z,13.27
2019-01-21T14:58:51.111Z,12.90
2019-01-21T15:01:41.722Z,15.57
2019-01-21T15:04:23.770Z,14.87
2019-01-21T15:07:00.117Z,14.10
2019-01-21T15:09:48.073Z,14.67
2019-01-21T15:12:41.969Z,16.07
2019-01-21T15:15:38.798Z,16.80
2019-01-21T15:18:26.671Z,21.07
2019-01-21T15:21:04.341Z,20.70
2019-01-21T15:23:42.114Z,19.10
2019-01-21T15:26:22.890Z,18.20
2019-01-21T15:29:08.893Z,20.63
2019-01-21T15:31:59.403Z,19.50
2019-01-21T15:34:50.156Z,16.87
2019-01-21T15:37:28.633Z,20.17
2019-01-21T15:40:34.330Z,26.33
2019-01-21T15:43:14.778Z,33.50
2019-01-21T15:46:00.756Z,43.77
2019-01-21T15:48:54.410Z,43.17
2019-01-21T15:51:36.223Z,54.03
2019-01-21T15:54:09.289Z,52.37
2019-01-21T15:56:57.111Z,57.40
2019-01-21T15:59:31.161Z,54.03
2019-01-21T16:02:05.655Z,52.13
2019-01-21T16:04:53.426Z,60.53
2019-01-21T16:07:24.285Z,59.03
2019-01-21T16:10:10.383Z,60.50
2019-01-21T16:12:56.355Z,66.37
2019-01-21T16:15:59.030Z,66.77
2019-01-21T16:18:38.990Z,72.87
2019-01-21T16:21:26.784Z,73.57
2019-01-21T16:24:31.214Z,73.53
2019-01-21T16:27:08.812Z,81.50
2019-01-21T16:29:49.403Z,77.63
2019-01-21T16:32:35.420Z,84.00
2019-01-21T16:35:10.315Z,87.97
2019-01-21T16:38:06.755Z,97.33
2019-01-21T16:41:00.538Z,87.87
2019-01-21T16:43:29.895Z,89.23
2019-01-21T16:45:58.473Z,95.00
2019-01-21T16:48:27.029Z,96.77
2019-01-21T16:50:55.601Z,97.73
2019-01-21T16:53:24.181Z,94.50
2019-01-21T16:55:52.769Z,94.27
2019-01-21T16:58:21.423Z,94.73
2019-01-21T17:00:50.908Z,97.40
2019-01-21T17:03:19.479Z,95.77
2019-01-21T17:05:48.038Z,93.73
2019-01-21T17:08:16.663Z,92.03
2019-01-21T17:10:45.293Z,93.67
2019-01-21T17:13:13.900Z,98.43
2019-01-21T17:15:42.553Z,100.20
2019-01-21T17:18:11.127Z,96.47
2019-01-21T17:20:39.686Z,100.23
2019-01-21T17:23:08.249Z,99.87
2019-01-21T17:25:36.811Z,94.33
2019-01-21T17:28:05.377Z,101.43
2019-01-21T17:30:34.013Z,94.93
2019-01-21T17:33:02.583Z,94.40
2019-01-21T17:35:31.145Z,99.57
2019-01-21T17:37:59.719Z,98.40
2019-01-21T17:40:28.279Z,99.90
2019-01-21T17:42:56.862Z,95.90
2019-01-21T17:45:25.422Z,96.17
2019-01-21T17:47:53.976Z,89.63
2019-01-21T17:50:24.070Z,90.43
2019-01-21T17:52:52.623Z,89.50
2019-01-21T17:55:21.183Z,88.30
2019-01-21T17:57:49.754Z,85.10
2019-01-21T18:00:21.150Z,85.37
2019-01-21T18:02:49.715Z,85.03
2019-01-21T18:05:18.296Z,86.77
2019-01-21T18:07:46.861Z,80.63
2019-01-21T18:10:16.079Z,86.30
2019-01-21T18:12:44.775Z,87.57
2019-01-21T18:15:13.373Z,81.03
2019-01-21T18:17:41.945Z,80.40
2019-01-21T18:20:12.022Z,78.37
2019-01-21T18:22:40.580Z,79.37
2019-01-21T18:25:09.431Z,76.97
2019-01-21T18:27:38.077Z,78.97
2019-01-21T18:30:08.008Z,75.13
2019-01-21T18:32:36.629Z,78.67
2019-01-21T18:35:05.850Z,77.73
2019-01-21T18:37:36.355Z,78.87
2019-01-21T18:40:05.410Z,75.37
2019-01-21T18:42:34.052Z,77.70
2019-01-21T18:45:02.615Z,77.50
2019-01-21T18:47:31.194Z,75.27
2019-01-21T18:49:59.784Z,73.97
2019-01-21T18:52:31.408Z,71.47
2019-01-21T18:54:59.979Z,69.87
2019-01-21T18:57:28.572Z,68.07
2019-01-21T18:59:57.109Z,66.40
2019-01-21T19:02:25.698Z,70.80
2019-01-21T19:04:54.321Z,67.67
2019-01-21T19:07:22.891Z,65.83
2019-01-21T19:09:51.470Z,66.90
2019-01-21T19:12:20.024Z,60.93
2019-01-21T19:14:48.533Z,64.57
2019-01-21T19:17:17.171Z,65.03
2019-01-21T19:19:45.781Z,67.23
2019-01-21T19:22:14.419Z,64.07
2019-01-21T19:24:43.082Z,64.20
2019-01-21T19:27:11.642Z,65.23
2019-01-21T19:29:40.206Z,61.30
2019-01-21T19:32:08.783Z,60.33
2019-01-21T19:34:37.342Z,62.83
2019-01-21T19:37:05.965Z,56.57
2019-01-21T19:39:34.616Z,61.43
2019-01-21T19:42:03.207Z,56.03
2019-01-21T19:44:31.806Z,59.37
2019-01-21T19:47:00.416Z,57.53
2019-01-21T19:49:28.990Z,59.60
2019-01-21T19:52:00.466Z,56.83
2019-01-21T19:54:27.883Z,59.17
2019-01-21T19:56:56.454Z,60.03
2019-01-21T19:59:25.005Z,54.43
2019-01-21T20:01:53.603Z,59.80
2019-01-21T20:04:22.150Z,61.90
2019-01-21T20:06:50.749Z,53.33
2019-01-21T20:09:19.315Z,56.63
2019-01-21T20:11:48.403Z,54.40
2019-01-21T20:14:17.500Z,57.20
2019-01-21T20:16:46.555Z,55.73
2019-01-21T20:19:15.610Z,56.17
2019-01-21T20:21:44.663Z,52.30
2019-01-21T20:24:13.745Z,53.87
2019-01-21T20:26:42.826Z,52.23
2019-01-21T20:29:11.898Z,54.20
2019-01-21T20:31:41.039Z,49.80
2019-01-21T20:34:10.240Z,55.47
2019-01-21T20:36:39.296Z,51.37
2019-01-21T20:39:09.551Z,48.03
2019-01-21T20:41:38.707Z,47.17
2019-01-21T20:44:07.769Z,45.63
2019-01-21T20:46:37.027Z,47.83
2019-01-21T20:49:06.105Z,46.23
2019-01-21T20:51:35.172Z,43.57
2019-01-21T20:54:04.356Z,45.30
2019-01-21T20:56:33.492Z,44.23
2019-01-21T20:59:02.578Z,45.63
2019-01-21T21:01:31.663Z,40.70
2019-01-21T21:04:00.950Z,45.80
2019-01-21T21:06:30.074Z,46.43
2019-01-21T21:08:59.320Z,38.77
2019-01-21T21:11:28.426Z,44.20
2019-01-21T21:13:57.583Z,41.43
2019-01-21T21:16:26.764Z,42.17
2019-01-21T21:18:55.908Z,46.73
2019-01-21T21:21:44.302Z,44.30
2019-01-21T21:24:13.503Z,43.10
2019-01-21T21:26:42.712Z,40.07
2019-01-21T21:29:11.935Z,48.40
2019-01-21T21:31:40.665Z,48.83
2019-01-21T21:34:09.333Z,44.73
2019-01-21T21:36:38.042Z,46.67
2019-01-21T21:39:07.146Z,47.97
2019-01-21T21:41:35.849Z,46.00
2019-01-21T21:44:04.481Z,51.73
2019-01-21T21:46:33.151Z,47.77
2019-01-21T21:49:02.120Z,47.33
2019-01-21T21:51:30.822Z,48.17
2019-01-21T21:53:59.406Z,45.10
2019-01-21T21:56:28.054Z,46.43
2019-01-21T21:58:56.662Z,51.57
2019-01-21T22:01:25.256Z,48.03
2019-01-21T22:03:53.920Z,49.20
2019-01-21T22:06:22.518Z,49.30
2019-01-21T22:08:51.755Z,48.83
2019-01-21T22:11:20.406Z,46.37
2019-01-21T22:13:49.018Z,43.10
2019-01-21T22:16:17.703Z,48.80
2019-01-21T22:18:46.303Z,44.77
2019-01-21T22:21:14.927Z,43.50
2019-01-21T22:23:43.604Z,46.50
2019-01-21T22:26:12.224Z,43.47
2019-01-21T22:28:41.219Z,43.93
2019-01-21T22:31:09.786Z,44.50
2019-01-21T22:33:38.343Z,50.47
2019-01-21T22:36:06.910Z,45.07
2019-01-21T22:38:35.459Z,44.10
2019-01-21T22:41:04.086Z,50.80
2019-01-21T22:43:32.762Z,52.53
2019-01-21T22:46:01.316Z,48.03
2019-01-21T22:48:29.864Z,45.90
2019-01-21T22:50:58.518Z,46.60
2019-01-21T22:53:27.078Z,48.33
2019-01-21T22:55:55.808Z,53.27
2019-01-21T22:58:24.518Z,46.97
2019-01-21T23:00:55.698Z,48.57
2019-01-21T23:03:24.837Z,43.53
2019-01-21T23:05:53.490Z,47.60
2019-01-21T23:08:22.308Z,44.90
2019-01-21T23:10:50.971Z,45.63
2019-01-21T23:13:19.619Z,46.23
2019-01-21T23:15:48.243Z,50.30
2019-01-21T23:18:16.869Z,48.97
2019-01-21T23:20:45.439Z,45.87
2019-01-21T23:23:14.030Z,46.23
2019-01-21T23:25:42.584Z,48.87
2019-01-21T23:28:11.155Z,48.63
2019-01-21T23:30:40.430Z,45.07
2019-01-21T23:33:08.977Z,42.73
2019-01-21T23:35:37.849Z,48.70
2019-01-21T23:38:06.510Z,46.13
2019-01-21T23:40:35.062Z,44.50
2019-01-21T23:43:03.691Z,46.97
2019-01-21T23:45:32.344Z,46.47
2019-01-21T23:48:00.966Z,42.87
2019-01-21T23:50:29.632Z,49.57
2019-01-21T23:52:58.196Z,46.10
2019-01-21T23:55:26.832Z,49.27
2019-01-21T23:57:55.418Z,49.10
